Terminal Aerodrome Forecast
Issued by NWS Corpus Christi, TX

Home | Current Version | Previous Version | Text Only | Print | Product List | Glossary On
Versions: 1 2 3 4 5 6 7 8 9 10 11 12 13 14 15
000
FTUS44 KCRP 012300
TAFVCT
TAF
KVCT 012338Z 0200/0224 04006KT P6SM VCTS BKN035CB OVC100
     FM020200 09005KT P6SM SCT050 BKN100
     FM020700 04003KT P6SM SCT025
      TEMPO 0207/0210 BKN025
     FM021500 04006KT P6SM BKN035=

USA.gov is the U.S. government's official web portal to all federal, state and local government web resources and services.